To NAV CANADA Home Page Login to a new session Search on AWWS site Disclaimer Vers la page française équivalente Tips FAQ What's new on the site To the Forecasts and Observations / NOTAM section To "File a Flight Plan" website Publications and other links Update of the User's profile FIC Telephone Numbers My Weather Data Folder Route Weather Data Regional Weather Data Local Weather Data To the Forecasts and Observations / NOTAM section
Request Generated 11/13/2018 at 18:03:48 UTC . Weather information available at that time is displayed.

METAR/TAF

KUGLUKTUK/NU    

METAR CYCO 131800Z 27004KT 15SM -SN OVC024 M19/M22 A3038 RMK SC8 SLP291=
METAR CYCO 131700Z 33004KT 15SM -SN OVC024 M19/M22 A3038 RMK SC8 SLP294=
METAR CYCO 131600Z 23004KT 15SM -SN OVC023 M19/M22 A3038 RMK SC8 SLP294=

TAF CYCO 131238Z 1313/1401 24010KT P6SM -SN OVC030 TEMPO 1313/1401
5SM -SN OVC020
RMK NXT FCST BY 131900Z=
Your time UTC time
Weather data provided by Environment Canada and NAV CANADA